EmailTwitter


Surface observations / United Kingdom / EGUB (03658)

Regions: Quebec | Canada | USA | Europe | France | UK | Elsewhere
Station
Display
Info & Location for EGUB (03658) | Help decoding METAR

Weather Conditions observed on 2017/08/20 at 05:50 UTC at BENSON RAF, UK (EGUB)

Temperature: 8.0 Celsius.

Dewpoint: 7.0 Celsius.

Relative Humidity: 93%

Winds: Southeast at 6 km/h or 3 knots.

Mean Sea level Pressure: 102.30 kilopascals.

Coded METAR:

EGUB 200550Z 12003KT CAVOK 08/07 Q1023 BLU=